Pleven, Bulgaria
Current Conditions -  °F | °C
As of 5:00 PM on Sunday 25 Jan 2015 (Local Time) from LBGO Reporting Station
Overcast Overcast  
Wind Chill: 30°   Ceiling: 700
Heat Index: 37°   Visibility: 4mi
Dew Point: 36°   Wind: 10mph
Humidity: 93%   Direction: 280°W
Pressure: 29.91"   Gusts: NA
Location:  43.42°N, 24.62°E
Report Text: LBGO 251400Z 28009KT 6000 BKN007 OVC022 03/02 Q1013 R99/29//94 NOSIG
Loading
Personal Weather Stations






























Interactive Weather Map New forecast layout! Learn more

10-Day Weather Forecast

Advertisements
Track Severe Weather on mobile